< < Back
Terminal Aerodrome Forecast


Current Version              Previous Versions:   1  2  3  4  5  6  7  8  9  

Terminal Aerodrome Forecast

806
FTUS42 KFFC 030520
TAFCSG
TAF
KCSG 030520Z 0306/0406 00000KT P6SM FEW080 BKN250
     FM031400 32003KT P6SM SCT045 BKN180
     FM031700 30004KT P6SM SCT050 BKN180 PROB30 0320/0324 -SHRA
      BKN050
     FM040000 00000KT P6SM SCT060 SCT150=

Latest METAR

414
SAUS70 KWBC 041000
MTRCSG
METAR KCSG 040951Z AUTO 00000KT 10SM CLR 23/21 A2997 RMK AO2 SLP142
T02280211


USA.gov is the U.S. government's official web portal to all federal, state and local government web resources and services.